aviador You're here:

PHNY Decoded Metar

LANAI in HI, USA LANAI ISL.
Report Time2018-02-22 11:56:00
UTC Time2018-02-22 12:25:17
Flight Rules vfr VFR
Wind040° at 08 kt
W.Decomp.*RWY 03: 8.0 kt HW 0.1 kt LCW
W.Rank040° ranks 1
Current wind is below 040° avg. (14.2)
Visibility9999 m
Phenomena:N/A
Clouds:N/A
Expected CloudBase > 400 ft AGL from Temp-Dew spread
CeilingNone
Temp19°C (ISA +7)
Dew Point18°C (94% RH)
AAT18.9°C
QNH1018 hPa
Density Alt2,192 ft
Elevation1,309 ft
Report Wrong Elevation
Raw Report
PHNY 221156Z AUTO 04008KT 10SM CLR 19/18 A3006 RMK AO2 SLP163
T01940178 10211 20189 58010=

Extra information for PHNY:More info

Metar Taf Metar & Taf Last 4 Metars F.Rules Stats Wind Profile Meteogram Temp Stats Airport Information Weather charts Add Link Nearby VenuesMetar ALERT Operation Metar Decoded Social comments